Terminal Aerodrome Forecast
Issued by NWS Flagstaff, AZ

Home | Current Version | Previous Version | Text Only | Print | Product List | Glossary On
Versions: 1 2 3 4 5 6 7 8 9 10 11 12 13 14 15 16 17
000
FTUS45 KFGZ 260100 AAA
TAFFLG
TAF AMD
KFLG 260144Z 2602/2624 VRB06KT 2SM FU SCT100 BKN200
     FM261900 24008KT P6SM SCT090
      TEMPO 2620/2624 VRB15G25KT 6SM -TSRA BKN090CB=

USA.gov is the U.S. government's official web portal to all federal, state and local government web resources and services.